createdAt,value
2018-04-30T00:02:30.633Z,64.21
2018-04-30T00:05:53.487Z,64.41
2018-04-30T00:09:16.315Z,63.59
2018-04-30T00:12:39.185Z,63.62
2018-04-30T00:16:02.097Z,63.55
2018-04-30T00:19:24.937Z,63.73
2018-04-30T00:22:47.785Z,64.30
2018-04-30T00:26:10.612Z,64.51
2018-04-30T00:29:33.483Z,64.15
2018-04-30T00:32:56.333Z,62.64
2018-04-30T00:36:19.179Z,63.78
2018-04-30T00:39:42.026Z,64.47
2018-04-30T00:43:04.876Z,66.60
2018-04-30T00:46:27.794Z,66.77
2018-04-30T00:49:50.639Z,67.63
2018-04-30T00:53:13.491Z,65.61
2018-04-30T00:56:36.348Z,67.10
2018-04-30T00:59:59.188Z,66.54
2018-04-30T01:03:22.105Z,61.40
2018-04-30T01:06:45.018Z,61.88
2018-04-30T01:10:07.873Z,61.12
2018-04-30T01:13:30.738Z,62.58
2018-04-30T01:16:53.572Z,63.39
2018-04-30T01:20:17.446Z,64.30
2018-04-30T01:23:40.286Z,65.99
2018-04-30T01:27:03.151Z,67.67
2018-04-30T01:30:25.992Z,68.75
2018-04-30T01:33:48.838Z,70.65
2018-04-30T01:37:11.766Z,72.26
2018-04-30T01:40:34.605Z,72.75
2018-04-30T01:43:57.463Z,73.85
2018-04-30T01:47:20.292Z,75.23
2018-04-30T01:50:43.133Z,74.70
2018-04-30T01:54:06.001Z,75.15
2018-04-30T01:57:28.844Z,74.96
2018-04-30T02:00:51.693Z,73.65
2018-04-30T02:04:14.545Z,72.56
2018-04-30T02:07:37.397Z,72.67
2018-04-30T02:11:00.249Z,72.46
2018-04-30T02:14:23.171Z,74.26
2018-04-30T02:17:47.039Z,73.62
2018-04-30T02:21:09.962Z,74.52
2018-04-30T02:24:32.875Z,74.37
2018-04-30T02:27:55.768Z,75.04
2018-04-30T02:31:18.629Z,74.76
2018-04-30T02:34:41.471Z,74.27
2018-04-30T02:38:04.324Z,72.64
2018-04-30T02:41:27.167Z,73.34
2018-04-30T02:44:50.043Z,71.40
2018-04-30T02:48:12.936Z,72.58
2018-04-30T02:51:35.806Z,70.36
2018-04-30T02:54:58.644Z,71.86
2018-04-30T02:58:21.572Z,73.36
2018-04-30T03:01:44.476Z,73.57
2018-04-30T03:05:07.330Z,73.64
2018-04-30T03:08:30.248Z,69.89
2018-04-30T03:11:53.112Z,72.98
2018-04-30T03:15:16.022Z,73.28
2018-04-30T03:18:38.864Z,72.03
2018-04-30T03:22:01.741Z,71.27
2018-04-30T03:25:25.408Z,71.29
2018-04-30T03:28:48.288Z,70.68
2018-04-30T03:32:11.138Z,71.03
2018-04-30T03:35:33.982Z,69.98
2018-04-30T03:38:56.841Z,70.46
2018-04-30T03:42:19.712Z,70.01
2018-04-30T03:45:43.358Z,70.00
2018-04-30T03:49:06.972Z,69.58
2018-04-30T03:52:29.850Z,69.39
2018-04-30T03:55:53.492Z,71.02
2018-04-30T03:59:17.164Z,70.15
2018-04-30T04:06:48.941Z,71.97
2018-04-30T04:10:12.616Z,72.34
2018-04-30T04:13:35.484Z,72.41
2018-04-30T04:16:58.398Z,68.73
2018-04-30T04:20:21.268Z,68.52
2018-04-30T04:23:44.180Z,71.12
2018-04-30T04:27:07.104Z,66.12
2018-04-30T04:30:29.940Z,70.18
2018-04-30T04:33:53.798Z,68.60
2018-04-30T04:37:16.735Z,63.61
2018-04-30T04:40:39.680Z,66.25
2018-04-30T04:44:03.297Z,64.19
2018-04-30T04:47:26.247Z,62.82
2018-04-30T04:50:49.080Z,63.02
2018-04-30T04:54:13.440Z,62.89
2018-04-30T04:57:36.297Z,62.55
2018-04-30T05:00:59.138Z,63.50
2018-04-30T05:04:22.085Z,65.10
2018-04-30T05:07:45.694Z,65.07
2018-04-30T05:11:08.558Z,64.92
2018-04-30T05:14:31.464Z,66.26
2018-04-30T05:17:54.302Z,62.11
2018-04-30T05:21:17.173Z,64.49
2018-04-30T05:24:40.010Z,65.87
2018-04-30T05:28:02.868Z,65.36
2018-04-30T05:31:25.802Z,66.28
2018-04-30T05:34:49.456Z,65.29
2018-04-30T05:38:13.090Z,66.42
2018-04-30T05:41:36.457Z,65.90
2018-04-30T05:45:00.184Z,64.43
2018-04-30T05:48:23.115Z,65.06
2018-04-30T05:51:46.075Z,65.00
2018-04-30T05:55:08.981Z,63.77
2018-04-30T05:58:31.868Z,65.19
2018-04-30T06:01:54.850Z,65.96
2018-04-30T06:05:17.765Z,64.54
2018-04-30T06:08:41.683Z,63.69
2018-04-30T06:12:04.997Z,62.22
2018-04-30T06:15:28.568Z,63.48
2018-04-30T06:18:52.979Z,65.01
2018-04-30T06:22:16.745Z,61.82
2018-04-30T06:25:40.460Z,63.24
2018-04-30T06:29:04.138Z,62.95
2018-04-30T06:32:27.020Z,62.15
2018-04-30T06:35:49.930Z,63.30
2018-04-30T06:39:12.808Z,61.27
2018-04-30T06:42:36.433Z,61.01
2018-04-30T06:45:59.368Z,61.83
2018-04-30T06:49:25.058Z,59.81
2018-04-30T06:52:49.833Z,60.05
2018-04-30T06:56:12.746Z,60.90
2018-04-30T06:59:35.652Z,59.90
2018-04-30T07:02:58.573Z,60.21
2018-04-30T07:06:21.502Z,59.18
2018-04-30T07:09:44.436Z,59.60
2018-04-30T07:13:07.358Z,59.92
2018-04-30T07:16:30.236Z,60.48
2018-04-30T07:19:53.886Z,60.99
2018-04-30T07:23:17.540Z,60.33
2018-04-30T07:26:40.517Z,60.39
2018-04-30T07:30:04.161Z,59.73
2018-04-30T07:33:27.164Z,59.21
2018-04-30T07:36:50.807Z,58.49
2018-04-30T07:40:14.452Z,58.12
2018-04-30T07:43:37.428Z,58.45
2018-04-30T07:47:00.298Z,57.59
2018-04-30T07:50:23.925Z,58.57
2018-04-30T07:53:46.802Z,56.66
2018-04-30T07:57:10.574Z,57.25
2018-04-30T08:00:33.423Z,55.97
2018-04-30T08:03:56.344Z,55.88
2018-04-30T08:07:19.272Z,56.26
2018-04-30T08:10:43.678Z,54.87
2018-04-30T08:14:06.570Z,55.65
2018-04-30T08:17:30.195Z,54.90
2018-04-30T08:20:53.061Z,55.81
2018-04-30T08:24:15.970Z,55.41
2018-04-30T08:27:38.816Z,55.58
2018-04-30T08:31:01.693Z,55.95
2018-04-30T08:34:25.347Z,55.50
2018-04-30T08:37:48.949Z,54.94
2018-04-30T08:41:11.801Z,54.03
2018-04-30T08:44:34.669Z,53.79
2018-04-30T08:47:57.604Z,54.26
2018-04-30T08:51:21.306Z,53.26
2018-04-30T08:54:45.257Z,53.05
2018-04-30T08:58:08.990Z,52.37
2018-04-30T09:01:31.917Z,52.34
2018-04-30T09:04:55.555Z,52.36
2018-04-30T09:08:19.193Z,52.03
2018-04-30T09:11:43.887Z,51.94
2018-04-30T09:15:07.684Z,50.89
2018-04-30T09:18:30.706Z,51.86
2018-04-30T09:21:53.709Z,50.40
2018-04-30T09:25:16.762Z,49.83
2018-04-30T09:28:39.720Z,50.75
2018-04-30T09:32:02.659Z,51.58
2018-04-30T09:35:25.564Z,49.71
2018-04-30T09:38:49.558Z,49.11
2018-04-30T09:42:14.448Z,49.62
2018-04-30T09:45:38.362Z,49.45
2018-04-30T09:49:01.271Z,48.86
2018-04-30T09:52:24.285Z,48.21
2018-04-30T09:55:47.938Z,48.14
2018-04-30T09:59:11.686Z,48.82
2018-04-30T10:02:34.547Z,48.71
2018-04-30T10:05:57.501Z,48.90
2018-04-30T10:09:21.189Z,47.82
2018-04-30T10:12:44.096Z,47.35
2018-04-30T10:16:07.815Z,47.71
2018-04-30T10:19:30.829Z,47.20
2018-04-30T10:22:53.706Z,47.92
2018-04-30T10:26:17.412Z,46.97
2018-04-30T10:29:40.403Z,46.94
2018-04-30T10:33:03.246Z,44.67
2018-04-30T10:40:42.327Z,44.07
2018-04-30T10:44:06.466Z,44.45
2018-04-30T10:47:29.370Z,43.18
2018-04-30T10:50:52.365Z,42.73
2018-04-30T10:54:15.270Z,43.37
2018-04-30T10:57:39.345Z,45.00
2018-04-30T11:01:02.280Z,43.61
2018-04-30T11:04:25.279Z,40.80
2018-04-30T11:07:48.202Z,41.14
2018-04-30T11:11:11.911Z,39.77
2018-04-30T11:14:45.579Z,39.24
2018-04-30T11:18:09.340Z,40.92
2018-04-30T11:21:33.228Z,41.67
2018-04-30T11:24:56.921Z,42.62
2018-04-30T11:28:19.921Z,42.20
2018-04-30T11:31:43.657Z,42.09
2018-04-30T11:35:08.204Z,42.59
2018-04-30T11:38:31.201Z,42.68
2018-04-30T11:41:54.151Z,43.10
2018-04-30T11:45:17.113Z,41.32
2018-04-30T11:48:40.988Z,45.00
2018-04-30T11:52:05.095Z,47.27
2018-04-30T11:55:28.924Z,50.08
2018-04-30T11:58:51.795Z,50.85
2018-04-30T12:02:15.589Z,51.37
2018-04-30T12:05:40.251Z,54.67
2018-04-30T12:09:03.119Z,55.22
2018-04-30T12:12:27.761Z,53.08
2018-04-30T12:15:50.667Z,57.89
2018-04-30T12:19:13.584Z,58.85
2018-04-30T12:22:36.484Z,60.37
2018-04-30T12:26:00.169Z,61.18
2018-04-30T12:29:23.068Z,58.79
2018-04-30T12:32:46.843Z,57.68
2018-04-30T12:36:10.558Z,59.55
2018-04-30T12:39:33.407Z,60.93
2018-04-30T12:42:56.336Z,62.06
2018-04-30T12:46:19.981Z,61.18
2018-04-30T12:49:44.359Z,58.38
2018-04-30T12:53:07.419Z,57.27
2018-04-30T12:56:31.047Z,56.55
2018-04-30T12:59:53.925Z,57.57
2018-04-30T13:03:18.571Z,54.32
2018-04-30T13:06:41.439Z,57.15
2018-04-30T13:10:04.329Z,56.37
2018-04-30T13:13:27.197Z,54.19
2018-04-30T13:16:51.582Z,56.55
2018-04-30T13:20:16.386Z,53.17
2018-04-30T13:23:39.348Z,51.12
2018-04-30T13:27:06.080Z,51.76
2018-04-30T13:30:29.703Z,51.07
2018-04-30T13:33:52.628Z,51.92
2018-04-30T13:37:15.517Z,51.67
2018-04-30T13:40:38.372Z,51.19
2018-04-30T13:44:01.290Z,47.71
2018-04-30T13:47:24.434Z,46.04
2018-04-30T13:50:47.425Z,42.75
2018-04-30T13:54:10.390Z,44.40
2018-04-30T13:57:33.767Z,46.34
2018-04-30T14:00:57.439Z,47.11
2018-04-30T14:04:20.371Z,48.06
2018-04-30T14:07:43.257Z,45.82
2018-04-30T14:11:07.047Z,45.75
2018-04-30T14:14:30.654Z,45.99
2018-04-30T14:17:53.487Z,45.87
2018-04-30T14:21:16.318Z,49.08
2018-04-30T14:24:39.968Z,46.71
2018-04-30T14:28:03.714Z,45.48
2018-04-30T14:31:26.574Z,46.65
2018-04-30T14:34:49.441Z,45.71
2018-04-30T14:38:13.057Z,44.68
2018-04-30T14:41:35.890Z,44.21
2018-04-30T14:44:58.833Z,44.53
2018-04-30T14:48:21.704Z,43.21
2018-04-30T14:51:44.551Z,43.82
2018-04-30T14:55:07.382Z,42.92
2018-04-30T14:58:30.199Z,41.96
2018-04-30T15:01:53.056Z,41.33
2018-04-30T15:05:15.957Z,41.75
2018-04-30T15:08:38.758Z,41.12
2018-04-30T15:12:01.584Z,42.73
2018-04-30T15:15:25.198Z,42.23
2018-04-30T15:18:48.052Z,41.42
2018-04-30T15:22:10.900Z,40.98
2018-04-30T15:25:33.789Z,41.26
2018-04-30T15:28:56.620Z,41.37
2018-04-30T15:32:20.234Z,41.02
2018-04-30T15:35:43.246Z,40.77
2018-04-30T15:39:06.846Z,40.59
2018-04-30T15:42:30.463Z,40.31
2018-04-30T15:45:54.527Z,40.57
2018-04-30T15:49:18.580Z,39.26
2018-04-30T15:52:42.213Z,40.77
2018-04-30T15:56:05.114Z,39.79
2018-04-30T17:22:22.041Z,43.37
2018-04-30T17:25:45.467Z,43.70
2018-04-30T17:29:08.311Z,43.06
2018-04-30T17:32:31.226Z,42.80
2018-04-30T17:35:54.380Z,42.17
2018-04-30T17:39:20.051Z,40.99
2018-04-30T17:42:42.902Z,40.81
2018-04-30T17:46:06.745Z,40.38
2018-04-30T17:49:32.272Z,40.24
2018-04-30T17:52:56.773Z,39.65
2018-04-30T17:56:19.810Z,40.25
2018-04-30T17:59:42.750Z,41.29
2018-04-30T18:03:05.590Z,40.41
2018-04-30T18:06:28.504Z,40.36
2018-04-30T18:09:51.384Z,40.19
2018-04-30T18:13:15.095Z,38.79
2018-04-30T18:16:38.043Z,40.17
2018-04-30T18:20:00.927Z,40.54
2018-04-30T19:46:17.450Z,68.23
2018-04-30T19:49:40.341Z,68.75
2018-04-30T19:53:04.852Z,70.05
2018-04-30T19:56:27.799Z,70.04
2018-04-30T20:29:42.879Z,71.28
2018-04-30T20:33:05.813Z,72.17
2018-04-30T20:36:29.453Z,73.38
2018-04-30T20:39:52.480Z,73.71
2018-04-30T20:43:15.384Z,75.43
2018-04-30T20:46:39.075Z,75.73
2018-04-30T20:50:01.933Z,75.07
2018-04-30T20:53:24.872Z,74.79
2018-04-30T20:56:48.510Z,75.75
2018-04-30T21:00:12.166Z,74.50
2018-04-30T21:03:35.875Z,75.14
2018-04-30T21:06:58.915Z,75.00
2018-04-30T21:10:21.796Z,77.26
2018-04-30T21:13:45.498Z,78.92
2018-04-30T21:17:08.379Z,79.05
2018-04-30T21:20:31.247Z,79.49
2018-04-30T21:23:54.177Z,78.66
2018-04-30T21:27:17.038Z,79.51
2018-04-30T21:30:39.881Z,78.58
2018-04-30T21:34:02.803Z,78.75
2018-04-30T21:37:25.653Z,78.27
2018-04-30T21:40:48.579Z,77.68
2018-04-30T21:44:11.480Z,76.94
2018-04-30T21:47:34.514Z,76.46
2018-04-30T21:50:57.415Z,76.82
2018-04-30T21:54:20.322Z,75.90
2018-04-30T23:20:36.366Z,68.81
2018-04-30T23:23:59.277Z,70.15
2018-04-30T23:27:22.142Z,68.80
2018-04-30T23:30:45.002Z,67.98
2018-04-30T23:34:08.635Z,70.31
2018-04-30T23:37:31.543Z,72.15
2018-04-30T23:40:54.403Z,71.89
2018-04-30T23:44:17.303Z,71.13
2018-04-30T23:47:40.157Z,70.03
2018-04-30T23:51:03.013Z,68.55
2018-04-30T23:54:25.858Z,66.20
2018-04-30T23:57:48.838Z,66.71
